Time;durP1;ratioP1;P1;durP2;ratioP2;P2;SDS_P1;SDS_P2;PMS_P1;PMS_P2;Temp;Humidity;BMP_temperature;BMP_pressure;BME280_temperature;BME280_humidity;BME280_pressure;Samples;Min_cycle;Max_cycle;Signal;HPM_P1;HPM_P2
2022/10/02 00:00:58;;;;;;;;;;;;;;;19.73;60.84;100383.50;2224447;80;51519;-74
2022/10/02 00:04:00;;;;;;;;;;;;;;;19.75;60.79;100387.31;2211445;79;51114;-75
2022/10/02 00:07:03;;;;;;;;;;;;;;;19.74;60.69;100394.55;2221207;79;50703;-74
2022/10/02 00:10:10;;;;;;;;;;;;;;;19.75;60.59;100386.80;2218927;80;50388;-74
2022/10/02 00:13:13;;;;;;;;;;;;;;;19.75;60.59;100402.91;2221294;79;51543;-75
2022/10/02 00:16:19;;;;;;;;;;;;;;;19.76;60.57;100410.47;2209369;79;51110;-75
2022/10/02 00:19:21;;;;;;;;;;;;;;;19.71;60.66;100404.34;2219833;79;50807;-75
2022/10/02 00:22:27;;;;;;;;;;;;;;;19.73;60.67;100402.78;2225780;80;52550;-75
2022/10/02 00:25:33;;;;;;;;;;;;;;;19.75;60.55;100406.11;2220334;78;51555;-75
2022/10/02 00:28:37;;;;;;;;;;;;;;;19.72;60.60;100405.98;2230202;79;52584;-75
2022/10/02 00:31:40;;;;;;;;;;;;;;;19.72;60.51;100399.28;2256672;78;51591;-73
2022/10/02 00:34:46;;;;;;;;;;;;;;;19.71;60.66;100408.37;2256432;78;51359;-75
2022/10/02 00:38:06;;;;;;;;;;;;;;;19.71;60.50;100411.57;2258154;78;50409;-75
2022/10/02 00:41:18;;;;;;;;;;;;;;;19.71;60.58;100411.05;2244116;78;51054;-75
2022/10/02 00:44:27;;;;;;;;;;;;;;;19.72;60.55;100411.88;2261470;78;51644;-74
2022/10/02 00:47:30;;;;;;;;;;;;;;;19.73;60.57;100418.41;2262644;78;50886;-74
2022/10/02 00:50:33;;;;;;;;;;;;;;;19.72;60.52;100416.73;2259887;78;50801;-74
2022/10/02 00:53:37;;;;;;;;;;;;;;;19.71;60.49;100419.11;2255842;78;51553;-74
2022/10/02 00:56:49;;;;;;;;;;;;;;;19.72;60.45;100417.24;2255710;77;51601;-75
2022/10/02 01:00:06;;;;;;;;;;;;;;;19.73;60.44;100422.92;2245399;78;50346;-75
2022/10/02 01:03:09;;;;;;;;;;;;;;;19.72;60.47;100421.27;2237274;79;50337;-74
2022/10/02 01:06:11;;;;;;;;;;;;;;;19.69;60.53;100423.84;2216858;78;51080;-74
2022/10/02 01:09:12;;;;;;;;;;;;;;;19.68;60.70;100433.41;2207916;79;51536;-74
2022/10/02 01:12:14;;;;;;;;;;;;;;;19.63;60.68;100428.62;2237305;79;50652;-74
2022/10/02 01:15:17;;;;;;;;;;;;;;;19.65;60.86;100438.66;2237366;78;50416;-74
2022/10/02 01:18:18;;;;;;;;;;;;;;;19.63;61.04;100442.05;2208145;78;50117;-74
2022/10/02 01:21:22;;;;;;;;;;;;;;;19.62;61.11;100437.68;2235355;78;51547;-74
2022/10/02 01:24:34;;;;;;;;;;;;;;;19.65;60.98;100440.48;2233640;79;51607;-73
2022/10/02 01:27:35;;;;;;;;;;;;;;;19.62;61.17;100447.08;2238661;78;50399;-74
2022/10/02 01:30:38;;;;;;;;;;;;;;;19.60;61.17;100443.78;2231213;79;51265;-74
2022/10/02 01:33:40;;;;;;;;;;;;;;;19.61;61.17;100452.66;2251515;79;51610;-74
2022/10/02 01:36:42;;;;;;;;;;;;;;;19.63;61.05;100459.49;2251742;79;52652;-74
2022/10/02 01:39:44;;;;;;;;;;;;;;;19.62;60.95;100464.52;2251685;79;51539;-74
2022/10/02 01:42:45;;;;;;;;;;;;;;;19.63;60.89;100470.23;2246157;79;49602;-74
2022/10/02 01:45:49;;;;;;;;;;;;;;;19.63;60.93;100468.88;2257194;78;50344;-74
2022/10/02 01:48:55;;;;;;;;;;;;;;;19.64;60.82;100468.37;2257363;78;50533;-74
2022/10/02 01:52:01;;;;;;;;;;;;;;;19.62;60.83;100468.55;2252545;79;50401;-74
2022/10/02 01:55:07;;;;;;;;;;;;;;;19.57;61.04;100470.50;2252380;79;50838;-74
2022/10/02 01:58:11;;;;;;;;;;;;;;;19.61;60.79;100481.66;2251591;78;50386;-74
2022/10/02 02:01:17;;;;;;;;;;;;;;;19.62;60.70;100482.48;2251498;79;51560;-74
2022/10/02 02:04:23;;;;;;;;;;;;;;;19.63;60.69;100467.55;2253002;78;50669;-74
2022/10/02 02:07:34;;;;;;;;;;;;;;;19.63;60.61;100480.14;2237725;79;50122;-75
2022/10/02 02:10:52;;;;;;;;;;;;;;;19.64;60.52;100471.88;2253801;79;51560;-75
2022/10/02 02:13:55;;;;;;;;;;;;;;;19.62;60.59;100475.26;2252585;79;50463;-76
2022/10/02 02:16:59;;;;;;;;;;;;;;;19.60;60.59;100482.70;2249509;78;50834;-75
2022/10/02 02:20:05;;;;;;;;;;;;;;;19.61;60.55;100487.03;2240786;79;51929;-75
2022/10/02 02:23:08;;;;;;;;;;;;;;;19.61;60.51;100488.37;2255237;78;51633;-75
2022/10/02 02:26:11;;;;;;;;;;;;;;;19.61;60.50;100491.58;2251192;78;51633;-72
2022/10/02 02:29:12;;;;;;;;;;;;;;;19.58;60.54;100492.27;2236128;79;50009;-74
2022/10/02 02:32:15;;;;;;;;;;;;;;;19.58;60.47;100498.16;2222407;79;51465;-74
2022/10/02 02:35:17;;;;;;;;;;;;;;;19.57;60.54;100497.34;2216403;79;51731;-74
2022/10/02 02:38:24;;;;;;;;;;;;;;;19.59;60.47;100489.07;2235157;78;50466;-74
2022/10/02 02:41:27;;;;;;;;;;;;;;;19.61;60.33;100497.77;2234036;79;50317;-74
2022/10/02 02:44:33;;;;;;;;;;;;;;;19.60;60.41;100504.17;2214577;79;51616;-74
2022/10/02 02:47:39;;;;;;;;;;;;;;;19.61;60.30;100501.80;2211431;79;51084;-74
2022/10/02 02:50:46;;;;;;;;;;;;;;;19.59;60.39;100499.80;2238112;79;22295;-74
2022/10/02 02:53:55;;;;;;;;;;;;;;;19.60;60.33;100501.48;2237826;79;50489;-75
2022/10/02 02:56:57;;;;;;;;;;;;;;;19.60;60.31;100500.14;2128968;81;51582;-75
2022/10/02 02:59:59;;;;;;;;;;;;;;;19.60;60.28;100504.17;2184967;80;51012;-75
2022/10/02 03:03:00;;;;;;;;;;;;;;;19.59;60.24;100504.66;2105418;84;51451;-74
2022/10/02 03:06:18;;;;;;;;;;;;;;;19.59;60.21;100510.55;2110451;84;51658;-73
2022/10/02 03:09:20;;;;;;;;;;;;;;;19.61;60.13;100510.36;2105231;83;51655;-74
2022/10/02 03:12:33;;;;;;;;;;;;;;;19.66;60.04;100506.59;2148301;81;50766;-74
2022/10/02 03:15:36;;;;;;;;;;;;;;;19.71;60.06;100507.69;2130517;82;51305;-74
2022/10/02 03:18:42;;;;;;;;;;;;;;;19.73;60.21;100514.19;2130575;83;51522;-74
2022/10/02 03:21:45;;;;;;;;;;;;;;;19.77;60.20;100517.64;2130263;83;50483;-74
2022/10/02 03:24:48;;;;;;;;;;;;;;;19.86;60.05;100508.95;2108306;83;51404;-75
2022/10/02 03:27:51;;;;;;;;;;;;;;;19.93;59.83;100513.84;2130745;82;50601;-74
2022/10/02 03:30:53;;;;;;;;;;;;;;;20.00;59.69;100514.72;2130546;83;50460;-75
2022/10/02 03:33:55;;;;;;;;;;;;;;;20.07;59.54;100520.67;2168833;79;51619;-74
2022/10/02 03:36:56;;;;;;;;;;;;;;;20.06;59.46;100514.45;2131468;81;52503;-74
2022/10/02 03:39:59;;;;;;;;;;;;;;;20.06;59.48;100520.34;2233585;79;50428;-74
2022/10/02 03:43:01;;;;;;;;;;;;;;;20.05;59.50;100516.83;2212572;79;51610;-75
2022/10/02 03:46:02;;;;;;;;;;;;;;;20.05;59.46;100518.17;2244151;79;51520;-75
2022/10/02 03:49:04;;;;;;;;;;;;;;;20.05;59.47;100523.55;2224029;79;51031;-75
2022/10/02 03:52:05;;;;;;;;;;;;;;;20.07;59.49;100521.50;2244414;79;50516;-75
2022/10/02 03:55:20;;;;;;;;;;;;;;;20.08;59.48;100520.46;2244071;79;50431;-74
2022/10/02 03:58:22;;;;;;;;;;;;;;;20.07;59.52;100520.16;2244347;79;50842;-75
2022/10/02 04:01:25;;;;;;;;;;;;;;;20.06;59.50;100525.19;2223687;79;50996;-75
2022/10/02 04:04:28;;;;;;;;;;;;;;;20.04;59.52;100527.27;2244146;79;50429;-75
2022/10/02 04:07:34;;;;;;;;;;;;;;;20.03;59.54;100515.36;2244106;79;50515;-74
2022/10/02 04:10:43;;;;;;;;;;;;;;;20.01;59.70;100519.58;2238454;79;50159;-75
2022/10/02 04:13:50;;;;;;;;;;;;;;;20.05;59.61;100526.75;2237082;78;49679;-74
2022/10/02 04:17:06;;;;;;;;;;;;;;;20.07;59.50;100521.50;2251806;79;50366;-74
2022/10/02 04:20:09;;;;;;;;;;;;;;;20.06;59.48;100521.16;2251557;78;51803;-74
2022/10/02 04:23:12;;;;;;;;;;;;;;;20.04;59.55;100520.55;2251741;78;50730;-75
2022/10/02 04:26:15;;;;;;;;;;;;;;;20.02;59.54;100526.62;2243493;79;50378;-74
2022/10/02 04:29:25;;;;;;;;;;;;;;;20.01;59.61;100527.63;2238503;79;52742;-74
2022/10/02 04:32:31;;;;;;;;;;;;;;;19.99;59.65;100519.79;2251725;79;51556;-74
2022/10/02 04:35:33;;;;;;;;;;;;;;;20.04;59.63;100535.81;2252354;79;51653;-74
2022/10/02 04:38:48;;;;;;;;;;;;;;;20.06;59.48;100535.94;2251457;78;50312;-75
2022/10/02 04:41:57;;;;;;;;;;;;;;;20.07;59.40;100536.27;2245710;78;51711;-74
2022/10/02 04:45:01;;;;;;;;;;;;;;;20.06;59.39;100531.91;2251566;79;50344;-75
2022/10/02 04:48:04;;;;;;;;;;;;;;;20.05;59.40;100531.60;2251618;79;50500;-73
2022/10/02 04:51:10;;;;;;;;;;;;;;;20.04;59.41;100538.02;2223624;79;51283;-73
2022/10/02 04:54:25;;;;;;;;;;;;;;;20.01;59.56;100533.00;2252604;79;50447;-73
2022/10/02 04:57:45;;;;;;;;;;;;;;;20.01;59.64;100534.34;2251740;79;50802;-73
2022/10/02 05:00:48;;;;;;;;;;;;;;;20.05;59.59;100542.34;2251796;79;51600;-73
2022/10/02 05:03:58;;;;;;;;;;;;;;;20.06;59.56;100538.63;2230842;79;49652;-72
2022/10/02 05:07:10;;;;;;;;;;;;;;;20.06;59.60;100542.65;2251727;79;50903;-76
2022/10/02 05:10:22;;;;;;;;;;;;;;;20.05;59.73;100536.15;2230722;79;50930;-76
2022/10/02 05:13:28;;;;;;;;;;;;;;;20.04;59.74;100542.53;2244787;79;51598;-75
2022/10/02 05:16:31;;;;;;;;;;;;;;;20.01;59.87;100532.52;2226884;79;51941;-76
2022/10/02 05:19:44;;;;;;;;;;;;;;;20.01;59.85;100539.72;2251755;79;51531;-72
2022/10/02 05:22:47;;;;;;;;;;;;;;;20.06;59.72;100544.52;2251819;79;50384;-72
2022/10/02 05:25:56;;;;;;;;;;;;;;;20.07;59.72;100548.87;2251399;77;50461;-76
2022/10/02 05:28:59;;;;;;;;;;;;;;;20.07;59.74;100552.39;2221290;79;51559;-75
2022/10/02 05:32:02;;;;;;;;;;;;;;;20.07;59.74;100548.36;2209568;80;50465;-76
2022/10/02 05:35:06;;;;;;;;;;;;;;;20.04;59.71;100555.47;2213156;79;50482;-76
2022/10/02 05:38:21;;;;;;;;;;;;;;;20.02;59.78;100552.14;2239726;79;50324;-76
2022/10/02 05:41:41;;;;;;;;;;;;;;;20.05;59.75;100563.01;2228086;79;49685;-75
2022/10/02 05:44:44;;;;;;;;;;;;;;;20.07;59.66;100569.84;2249384;79;50823;-75
2022/10/02 05:47:47;;;;;;;;;;;;;;;20.08;59.60;100572.02;2253848;79;50475;-75
2022/10/02 05:50:49;;;;;;;;;;;;;;;20.06;59.57;100571.38;2253931;79;51671;-75
2022/10/02 05:53:56;;;;;;;;;;;;;;;20.03;59.62;100565.87;2231029;79;49648;-76
2022/10/02 05:56:59;;;;;;;;;;;;;;;20.04;59.86;100564.02;2251620;79;50368;-75
2022/10/02 06:00:03;;;;;;;;;;;;;;;20.06;60.65;100570.03;2251651;79;50444;-75
2022/10/02 06:03:23;;;;;;;;;;;;;;;20.06;59.88;100573.54;2251700;79;51557;-75
2022/10/02 06:06:26;;;;;;;;;;;;;;;20.11;59.88;100579.16;2224024;79;52563;-76
2022/10/02 06:09:32;;;;;;;;;;;;;;;20.13;59.84;100578.45;2252099;79;51656;-76
2022/10/02 06:12:42;;;;;;;;;;;;;;;20.16;59.88;100575.89;2243534;79;51619;-77
2022/10/02 06:15:54;;;;;;;;;;;;;;;20.18;60.20;100586.77;2248275;79;50437;-77
2022/10/02 06:18:58;;;;;;;;;;;;;;;20.16;60.17;100575.38;2240849;79;49616;-76
2022/10/02 06:22:01;;;;;;;;;;;;;;;20.14;60.04;100580.14;2255767;79;50294;-76
2022/10/02 06:25:08;;;;;;;;;;;;;;;20.12;60.15;100584.87;2244338;79;50809;-76
2022/10/02 06:28:11;;;;;;;;;;;;;;;20.11;60.20;100585.87;2250951;78;50461;-77
2022/10/02 06:31:17;;;;;;;;;;;;;;;20.10;60.21;100585.57;2234520;79;50314;-76
2022/10/02 06:34:19;;;;;;;;;;;;;;;20.10;60.26;100596.31;2252839;79;50801;-77
2022/10/02 06:37:37;;;;;;;;;;;;;;;20.10;60.36;100587.43;2249963;79;50488;-77
2022/10/02 06:40:49;;;;;;;;;;;;;;;20.08;60.29;100592.16;2251752;78;52927;-77
2022/10/02 06:43:58;;;;;;;;;;;;;;;20.09;60.71;100597.34;2238275;78;23254;-77
2022/10/02 06:47:07;;;;;;;;;;;;;;;20.10;60.44;100592.28;2251043;79;51589;-77
2022/10/02 06:50:26;;;;;;;;;;;;;;;20.13;60.49;100603.98;2218186;79;50875;-77
2022/10/02 06:53:36;;;;;;;;;;;;;;;20.15;60.52;100596.56;2240268;79;50797;-77
2022/10/02 06:56:39;;;;;;;;;;;;;;;20.16;60.46;100601.41;2223273;79;52627;-78
2022/10/02 06:59:40;;;;;;;;;;;;;;;;;;2251696;79;51580;-77
2022/10/02 07:02:46;;;;;;;;;;;;;;;20.14;60.45;100590.03;2252211;79;50441;-79
2022/10/02 07:05:55;;;;;;;;;;;;;;;20.12;60.49;100592.92;2251151;79;50698;-78
2022/10/02 07:09:07;;;;;;;;;;;;;;;20.15;60.56;100591.19;2259304;78;50509;-78
2022/10/02 07:12:11;;;;;;;;;;;;;;;20.16;60.42;100596.86;2244323;78;52560;-77
2022/10/02 07:15:20;;;;;;;;;;;;;;;20.21;60.52;100598.97;2255704;78;50761;-77
2022/10/02 07:18:41;;;;;;;;;;;;;;;20.21;60.65;100598.45;2256050;78;50707;-77
2022/10/02 07:22:01;;;;;;;;;;;;;;;20.23;60.57;100599.62;2256444;78;51543;-78
2022/10/02 07:25:10;;;;;;;;;;;;;;;20.20;60.36;100595.47;2241256;78;50128;-77
2022/10/02 07:28:13;;;;;;;;;;;;;;;20.22;60.45;100602.83;2245884;78;51041;-78
2022/10/02 07:31:17;;;;;;;;;;;;;;;20.27;60.42;100600.05;2250721;78;50374;-78
2022/10/02 07:34:20;;;;;;;;;;;;;;;20.29;60.35;100605.54;2262905;78;51532;-77
2022/10/02 07:37:27;;;;;;;;;;;;;;;20.32;60.37;100605.66;2244801;78;51714;-78
2022/10/02 07:40:31;;;;;;;;;;;;;;;20.33;60.34;100607.34;2255865;79;50698;-78
2022/10/02 07:43:46;;;;;;;;;;;;;;;20.34;60.29;100607.65;2255585;78;50712;-79
2022/10/02 07:46:55;;;;;;;;;;;;;;;20.33;60.21;100603.31;2258561;78;51538;-78
2022/10/02 07:50:02;;;;;;;;;;;;;;;20.34;60.19;100615.71;2247441;79;51250;-77
2022/10/02 07:53:17;;;;;;;;;;;;;;;20.32;60.19;100605.17;2259996;78;50447;-77
2022/10/02 07:56:22;;;;;;;;;;;;;;;20.32;60.19;100602.98;2263041;78;50519;-77
2022/10/02 07:59:23;;;;;;;;;;;;;;;20.30;60.13;100607.22;2257597;78;50703;-77
2022/10/02 08:02:27;;;;;;;;;;;;;;;20.28;60.18;100610.61;2210247;80;50986;-77
2022/10/02 08:05:34;;;;;;;;;;;;;;;20.30;60.14;100614.45;2236701;79;51616;-78
2022/10/02 08:08:40;;;;;;;;;;;;;;;20.30;60.18;100622.52;2238282;79;51561;-78
2022/10/02 08:11:43;;;;;;;;;;;;;;;20.29;60.16;100622.19;2238248;79;50374;-78
2022/10/02 08:14:45;;;;;;;;;;;;;;;20.27;60.14;100618.85;2166407;79;49616;-77
2022/10/02 08:17:48;;;;;;;;;;;;;;;20.23;60.15;100620.59;2238007;79;50461;-77
2022/10/02 08:20:50;;;;;;;;;;;;;;;20.23;60.13;100611.19;2238132;79;51469;-77
2022/10/02 08:23:58;;;;;;;;;;;;;;;20.22;60.14;100609.54;2238063;79;50297;-78
2022/10/02 08:27:02;;;;;;;;;;;;;;;20.21;60.14;100614.58;2228760;78;52542;-78
2022/10/02 08:30:05;;;;;;;;;;;;;;;20.20;60.22;100604.05;2255939;79;50590;-77
2022/10/02 08:33:14;;;;;;;;;;;;;;;20.22;60.17;100604.69;2256864;78;50767;-77
2022/10/02 08:36:32;;;;;;;;;;;;;;;20.23;60.11;100603.13;2262362;78;52569;-77
2022/10/02 08:39:45;;;;;;;;;;;;;;;20.25;60.09;100602.95;2244493;79;52705;-77
2022/10/02 08:42:57;;;;;;;;;;;;;;;20.23;60.06;100607.16;2256475;78;50812;-77
2022/10/02 08:46:06;;;;;;;;;;;;;;;20.21;60.07;100609.72;2255895;78;52833;-77
2022/10/02 08:49:12;;;;;;;;;;;;;;;20.18;60.11;100601.54;2258678;78;50515;-79
2022/10/02 08:52:31;;;;;;;;;;;;;;;20.18;60.15;100600.72;2248103;79;49772;-78
2022/10/02 08:55:36;;;;;;;;;;;;;;;20.20;60.11;100596.81;2257438;78;50831;-79
2022/10/02 08:58:51;;;;;;;;;;;;;;;20.20;60.07;100598.67;2247534;78;51666;-79
2022/10/02 09:01:55;;;;;;;;;;;;;;;20.20;60.00;100591.44;2263537;78;51602;-78
2022/10/02 09:05:05;;;;;;;;;;;;;;;20.19;60.01;100590.27;2246547;78;50946;-78
2022/10/02 09:08:08;;;;;;;;;;;;;;;20.18;60.04;100594.82;2264079;78;50719;-78
2022/10/02 09:11:16;;;;;;;;;;;;;;;20.15;60.06;100591.19;2262362;78;50723;-78
2022/10/02 09:14:23;;;;;;;;;;;;;;;20.16;60.07;100591.49;2259187;78;50811;-78
2022/10/02 09:17:44;;;;;;;;;;;;;;;20.18;60.02;100593.48;2248711;79;51492;-77
2022/10/02 09:20:47;;;;;;;;;;;;;;;20.16;60.02;100599.55;2255471;79;50714;-78
2022/10/02 09:23:55;;;;;;;;;;;;;;;20.16;59.96;100596.86;2251361;78;51600;-78
2022/10/02 09:26:59;;;;;;;;;;;;;;;20.16;59.96;100596.86;2257224;78;25064;-78
2022/10/02 09:30:20;;;;;;;;;;;;;;;20.14;59.97;100600.77;2227953;79;51067;-78
2022/10/02 09:33:27;;;;;;;;;;;;;;;20.12;60.07;100606.87;2257746;78;50808;-78
2022/10/02 09:36:33;;;;;;;;;;;;;;;20.12;60.03;100602.33;2258280;78;50855;-78
2022/10/02 09:39:53;;;;;;;;;;;;;;;20.12;60.02;100599.64;2256757;78;51546;-78
2022/10/02 09:43:13;;;;;;;;;;;;;;;20.13;59.98;100591.06;2241825;78;51078;-78
2022/10/02 09:46:34;;;;;;;;;;;;;;;20.12;59.91;100595.61;2258278;78;50793;-78
2022/10/02 09:49:56;;;;;;;;;;;;;;;20.12;59.95;100585.39;2254784;78;50698;-78
2022/10/02 09:53:02;;;;;;;;;;;;;;;20.10;59.95;100581.54;2256979;78;22382;-78
2022/10/02 09:56:11;;;;;;;;;;;;;;;20.10;60.02;100574.83;2243019;79;49773;-78
2022/10/02 09:59:20;;;;;;;;;;;;;;;20.12;59.92;100575.47;2224296;79;51958;-78
2022/10/02 10:02:29;;;;;;;;;;;;;;;20.12;59.87;100575.47;2257428;78;51539;-78
2022/10/02 10:05:52;;;;;;;;;;;;;;;20.13;59.82;100573.60;2258470;77;50900;-78
2022/10/02 10:09:01;;;;;;;;;;;;;;;20.12;59.84;100574.12;2234827;79;51903;-78
2022/10/02 10:12:07;;;;;;;;;;;;;;;20.11;59.81;100583.70;2252393;79;50516;-78
2022/10/02 10:15:23;;;;;;;;;;;;;;;20.07;59.90;100580.59;2252314;79;50459;-78
2022/10/02 10:18:29;;;;;;;;;;;;;;;20.07;59.91;100576.56;2254270;79;50743;-78
2022/10/02 10:21:49;;;;;;;;;;;;;;;20.07;59.92;100588.65;2232687;79;50207;-78
2022/10/02 10:25:09;;;;;;;;;;;;;;;20.06;59.86;100582.94;2252114;79;50859;-76
2022/10/02 10:28:18;;;;;;;;;;;;;;;20.06;59.85;100586.14;2240443;77;51435;-75
2022/10/02 10:31:36;;;;;;;;;;;;;;;20.05;59.86;100593.37;2253069;79;51669;-76
2022/10/02 10:34:46;;;;;;;;;;;;;;;20.03;59.89;100591.39;2234088;79;50420;-76
2022/10/02 10:41:25;;;;;;;;;;;;;;;20.03;59.94;100587.36;2252283;79;22679;-76
2022/10/02 10:44:45;;;;;;;;;;;;;;;20.08;59.80;100583.58;2215292;79;50523;-77
2022/10/02 10:47:58;;;;;;;;;;;;;;;20.10;59.76;100603.03;2223545;79;52794;-77
2022/10/02 10:51:15;;;;;;;;;;;;;;;20.10;59.74;100599.00;2255553;79;50963;-77
2022/10/02 10:54:21;;;;;;;;;;;;;;;20.10;59.74;100599.00;2253801;79;22706;-77
2022/10/02 10:57:30;;;;;;;;;;;;;;;20.09;59.74;100599.18;2245680;79;50487;-77
2022/10/02 11:00:49;;;;;;;;;;;;;;;20.07;59.83;100600.73;2231481;79;51366;-76
2022/10/02 11:03:57;;;;;;;;;;;;;;;20.08;59.80;100605.59;2252427;78;50454;-77
2022/10/02 11:07:06;;;;;;;;;;;;;;;20.08;59.78;100598.36;2251880;78;52302;-77
2022/10/02 11:10:15;;;;;;;;;;;;;;;20.09;59.77;100593.81;2252997;78;51579;-77
2022/10/02 11:13:31;;;;;;;;;;;;;;;20.10;59.76;100591.45;2237304;79;51979;-76
2022/10/02 11:16:37;;;;;;;;;;;;;;;20.10;59.74;100591.45;2256330;78;50821;-77
2022/10/02 11:19:41;;;;;;;;;;;;;;;20.05;59.83;100592.03;2259570;78;50291;-77
2022/10/02 11:23:00;;;;;;;;;;;;;;;20.08;59.81;100594.84;2253721;78;50212;-80
2022/10/02 11:26:10;;;;;;;;;;;;;;;20.10;59.91;100594.97;2236291;79;50985;-78
2022/10/02 11:29:13;;;;;;;;;;;;;;;20.12;59.86;100591.58;2237720;78;50711;-82
2022/10/02 11:32:21;;;;;;;;;;;;;;;20.10;60.06;100590.12;2256091;78;50796;-77
2022/10/02 11:35:25;;;;;;;;;;;;;;;20.08;60.15;100590.81;2242005;78;22286;-79
2022/10/02 11:38:28;;;;;;;;;;;;;;;20.09;60.13;100589.30;2255796;78;24508;-79
2022/10/02 11:41:31;;;;;;;;;;;;;;;20.08;60.14;100597.53;2250027;78;51670;-81
2022/10/02 11:44:47;;;;;;;;;;;;;;;20.04;60.13;100583.67;2258494;77;50853;-79
2022/10/02 11:47:59;;;;;;;;;;;;;;;20.08;60.05;100576.87;2251998;78;50714;-79
2022/10/02 11:51:19;;;;;;;;;;;;;;;20.09;59.99;100585.27;2260205;78;50823;-78
2022/10/02 11:54:23;;;;;;;;;;;;;;;20.11;60.00;100597.96;2256097;78;50361;-79
2022/10/02 11:57:27;;;;;;;;;;;;;;;20.06;60.17;100584.28;2241975;78;50352;-78
2022/10/02 12:00:46;;;;;;;;;;;;;;;20.04;60.34;100589.05;2241074;78;50822;-79
2022/10/02 12:03:49;;;;;;;;;;;;;;;20.13;59.99;100581.14;2236380;79;49454;-76
2022/10/02 12:06:52;;;;;;;;;;;;;;;20.16;59.96;100576.72;2241240;78;50479;-77
2022/10/02 12:10:12;;;;;;;;;;;;;;;20.20;59.95;100579.34;2254357;78;50558;-77
2022/10/02 12:13:32;;;;;;;;;;;;;;;20.20;59.89;100584.72;2251464;79;51583;-77
2022/10/02 12:16:46;;;;;;;;;;;;;;;20.23;59.88;100587.01;2241431;78;51380;-77
2022/10/02 12:26:59;;;;;;;;;;;;;;;20.21;59.95;100589.05;2179803;81;22527;-78
2022/10/02 12:30:02;;;;;;;;;;;;;;;20.18;60.12;100585.94;2170525;82;52230;-77
2022/10/02 12:33:12;;;;;;;;;;;;;;;20.15;60.09;100594.39;2172213;82;51626;-77
2022/10/02 12:36:15;;;;;;;;;;;;;;;20.22;60.00;100588.56;2172200;82;50744;-77
2022/10/02 12:39:18;;;;;;;;;;;;;;;20.21;59.97;100594.42;2172053;82;50839;-77
2022/10/02 12:42:30;;;;;;;;;;;;;;;20.17;60.05;100595.86;2148934;82;50225;-77
2022/10/02 12:45:33;;;;;;;;;;;;;;;20.19;59.99;100584.41;2172166;82;51534;-78
2022/10/02 12:48:49;;;;;;;;;;;;;;;20.16;60.05;100591.49;2172081;82;51533;-77
2022/10/02 12:51:53;;;;;;;;;;;;;;;20.14;60.09;100596.26;2172291;82;51649;-77
2022/10/02 12:55:11;;;;;;;;;;;;;;;20.11;60.14;100591.25;2172053;82;51542;-77
2022/10/02 12:58:16;;;;;;;;;;;;;;;20.09;60.23;100597.34;2170762;82;50422;-78
2022/10/02 13:01:35;;;;;;;;;;;;;;;20.01;60.33;100595.63;2173451;82;51552;-78
2022/10/02 13:04:56;;;;;;;;;;;;;;;19.98;60.43;100585.25;2245182;79;50491;-77
2022/10/02 13:08:09;;;;;;;;;;;;;;;19.99;60.37;100584.25;2251209;79;50276;-78
2022/10/02 13:11:12;;;;;;;;;;;;;;;20.01;60.31;100587.58;2251168;78;50568;-78
2022/10/02 13:14:19;;;;;;;;;;;;;;;20.03;60.21;100577.96;2251103;79;51503;-77
2022/10/02 13:17:22;;;;;;;;;;;;;;;20.02;60.20;100580.34;2251078;79;51648;-77
2022/10/02 13:20:38;;;;;;;;;;;;;;;20.07;60.19;100580.59;2231166;79;50315;-77
2022/10/02 13:23:41;;;;;;;;;;;;;;;20.09;60.56;100577.69;2250980;79;51526;-77
2022/10/02 13:26:45;;;;;;;;;;;;;;;20.07;61.90;100573.05;2251179;79;51555;-77
2022/10/02 13:29:47;;;;;;;;;;;;;;;20.09;63.50;100575.01;2207035;79;51611;-78
2022/10/02 13:32:51;;;;;;;;;;;;;;;20.11;63.72;100583.19;2280461;77;51113;-77
2022/10/02 13:36:09;;;;;;;;;;;;;;;20.13;63.08;100574.42;2253416;77;50223;-77
2022/10/02 13:39:13;;;;;;;;;;;;;;;20.20;63.05;100579.34;2250980;79;51567;-74
2022/10/02 13:42:17;;;;;;;;;;;;;;;20.18;63.08;100575.19;2251048;77;51474;-74
2022/10/02 13:45:25;;;;;;;;;;;;;;;20.13;62.82;100571.74;2232175;77;50196;-74
2022/10/02 13:48:45;;;;;;;;;;;;;;;20.19;62.40;100584.90;2251414;77;22367;-74
2022/10/02 13:51:51;;;;;;;;;;;;;;;20.13;62.33;100578.98;2251092;79;51590;-75
2022/10/02 13:54:56;;;;;;;;;;;;;;;20.09;62.17;100585.27;2250753;77;50825;-74
2022/10/02 13:58:05;;;;;;;;;;;;;;;20.08;62.11;100578.21;2217873;78;52578;-74
2022/10/02 14:01:08;;;;;;;;;;;;;;;20.05;62.16;100575.92;2216695;80;51537;-74
2022/10/02 14:04:26;;;;;;;;;;;;;;;20.04;62.17;100576.95;2215374;79;51624;-74
2022/10/02 14:07:29;;;;;;;;;;;;;;;20.04;62.20;100572.93;2207244;79;50839;-74
2022/10/02 14:10:32;;;;;;;;;;;;;;;20.05;62.19;100574.58;2193953;79;52136;-74
2022/10/02 14:13:38;;;;;;;;;;;;;;;20.05;62.24;100573.23;2211321;79;50812;-74
2022/10/02 14:16:41;;;;;;;;;;;;;;;20.05;62.19;100579.95;2207153;79;51571;-74
2022/10/02 14:20:00;;;;;;;;;;;;;;;20.07;62.12;100587.83;2207174;79;51649;-75
2022/10/02 14:23:15;;;;;;;;;;;;;;;20.06;62.13;100586.97;2183379;80;52645;-74
2022/10/02 14:26:21;;;;;;;;;;;;;;;20.07;62.15;100584.62;2208176;79;50497;-74
2022/10/02 14:29:25;;;;;;;;;;;;;;;20.07;62.05;100589.99;2219481;79;51559;-74
2022/10/02 14:32:31;;;;;;;;;;;;;;;20.07;62.11;100594.54;2207458;80;51581;-74
2022/10/02 14:35:46;;;;;;;;;;;;;;;20.06;62.08;100597.71;2211428;79;52525;-74
2022/10/02 14:38:55;;;;;;;;;;;;;;;20.08;62.02;100597.53;2242641;79;50488;-72
2022/10/02 14:42:15;;;;;;;;;;;;;;;20.07;62.03;100603.42;2243191;78;51648;-74
2022/10/02 14:45:35;;;;;;;;;;;;;;;20.08;62.00;100606.41;2243307;78;51492;-75
2022/10/02 14:48:57;;;;;;;;;;;;;;;20.08;62.02;100601.05;2231838;79;52695;-76
2022/10/02 14:52:00;;;;;;;;;;;;;;;20.09;61.99;100603.21;2243331;78;50303;-75
2022/10/02 14:55:21;;;;;;;;;;;;;;;20.09;61.96;100618.84;2243107;78;50559;-75
2022/10/02 14:58:40;;;;;;;;;;;;;;;20.10;61.95;100610.27;2243623;79;50820;-75
2022/10/02 15:01:53;;;;;;;;;;;;;;;20.09;62.04;100620.19;2231664;79;51045;-75
2022/10/02 15:05:02;;;;;;;;;;;;;;;20.08;61.97;100613.13;2243255;79;50327;-72
2022/10/02 15:08:04;;;;;;;;;;;;;;;20.07;62.04;100622.74;2229571;78;51561;-73
2022/10/02 15:11:06;;;;;;;;;;;;;;;20.06;61.98;100617.86;2223948;80;50464;-73
2022/10/02 15:14:10;;;;;;;;;;;;;;;20.07;61.98;100617.38;2178715;80;51129;-73
2022/10/02 15:20:34;;;;;;;;;;;;;;;20.04;61.91;100618.59;2224357;80;22413;-74
2022/10/02 15:23:39;;;;;;;;;;;;;;;20.03;61.87;100628.17;2223687;80;51697;-74
2022/10/02 15:26:51;;;;;;;;;;;;;;;20.01;61.74;100629.20;2203009;79;49689;-73
2022/10/02 15:30:03;;;;;;;;;;;;;;;20.01;61.68;100639.95;2223811;80;50488;-73
2022/10/02 15:33:06;;;;;;;;;;;;;;;20.01;61.68;100640.44;2224064;79;51637;-73
2022/10/02 15:36:16;;;;;;;;;;;;;;;20.00;61.61;100638.78;2235067;79;51585;-73
2022/10/02 15:39:22;;;;;;;;;;;;;;;20.00;61.53;100644.16;2231593;79;49690;-73
2022/10/02 15:42:34;;;;;;;;;;;;;;;19.98;61.57;100640.83;2243649;79;50438;-73
2022/10/02 15:45:37;;;;;;;;;;;;;;;19.97;61.52;100643.20;2243296;78;51690;-74
2022/10/02 15:48:40;;;;;;;;;;;;;;;19.97;61.47;100648.06;2236315;79;51805;-74
2022/10/02 15:51:43;;;;;;;;;;;;;;;19.97;61.40;100649.92;2231553;79;52550;-74
2022/10/02 15:54:47;;;;;;;;;;;;;;;19.99;61.24;100650.56;2231837;79;52910;-74
2022/10/02 15:57:53;;;;;;;;;;;;;;;19.96;61.37;100653.61;2243202;78;51666;-73
2022/10/02 16:01:02;;;;;;;;;;;;;;;19.96;61.42;100655.81;2243682;79;51567;-73
2022/10/02 16:04:08;;;;;;;;;;;;;;;19.95;61.49;100664.05;2243344;79;51544;-74
2022/10/02 16:07:15;;;;;;;;;;;;;;;19.94;62.01;100663.22;2225151;79;52601;-74
2022/10/02 16:10:26;;;;;;;;;;;;;;;19.94;61.95;100669.11;2238355;78;51580;-74
2022/10/02 16:13:41;;;;;;;;;;;;;;;19.99;61.53;100670.71;2235035;79;51566;-74
2022/10/02 16:16:48;;;;;;;;;;;;;;;19.97;61.49;100676.26;2240733;79;51515;-75
2022/10/02 16:19:58;;;;;;;;;;;;;;;19.97;61.82;100672.23;2218224;79;52882;-74